createdAt,value
2023-02-25T00:00:34.399Z,6.15
2023-02-25T00:01:32.445Z,5.99
2023-02-25T00:02:29.364Z,6.23
2023-02-25T00:03:26.061Z,6.00
2023-02-25T00:04:22.976Z,6.23
2023-02-25T00:05:19.546Z,6.44
2023-02-25T00:06:16.271Z,6.42
2023-02-25T00:07:12.847Z,6.20
2023-02-25T00:08:09.608Z,6.08
2023-02-25T00:09:11.322Z,6.09
2023-02-25T00:10:11.574Z,6.27
2023-02-25T00:11:08.339Z,6.33
2023-02-25T00:12:05.785Z,6.29
2023-02-25T00:13:17.455Z,6.25
2023-02-25T00:14:14.729Z,6.14
2023-02-25T00:15:11.633Z,6.31
2023-02-25T00:16:09.625Z,6.27
2023-02-25T00:17:06.347Z,6.25
2023-02-25T00:18:02.954Z,6.26
2023-02-25T00:18:59.724Z,6.23
2023-02-25T00:19:57.535Z,6.08
2023-02-25T00:20:54.741Z,6.19
2023-02-25T00:21:51.342Z,5.66
2023-02-25T00:22:49.204Z,5.75
2023-02-25T00:23:48.093Z,6.11
2023-02-25T00:24:44.837Z,6.17
2023-02-25T00:25:41.509Z,6.04
2023-02-25T00:26:38.174Z,6.08
2023-02-25T00:27:35.392Z,6.05
2023-02-25T00:28:34.171Z,6.09
2023-02-25T00:29:31.482Z,6.05
2023-02-25T00:30:28.087Z,5.99
2023-02-25T00:31:25.944Z,5.96
2023-02-25T00:32:24.451Z,5.74
2023-02-25T00:33:21.256Z,6.11
2023-02-25T00:34:18.016Z,6.16
2023-02-25T00:35:14.590Z,6.04
2023-02-25T00:36:21.185Z,5.73
2023-02-25T00:37:18.184Z,6.07
2023-02-25T00:38:16.309Z,5.89
2023-02-25T00:39:13.502Z,6.14
2023-02-25T00:40:14.642Z,6.15
2023-02-25T00:41:11.922Z,6.02
2023-02-25T00:42:09.880Z,6.17
2023-02-25T00:43:07.151Z,6.25
2023-02-25T00:44:04.202Z,6.38
2023-02-25T00:45:00.823Z,6.26
2023-02-25T00:45:58.912Z,6.10
2023-02-25T00:46:55.498Z,6.12
2023-02-25T00:47:52.059Z,6.13
2023-02-25T00:48:50.245Z,6.07
2023-02-25T00:49:47.858Z,6.16
2023-02-25T00:50:44.478Z,6.13
2023-02-25T00:51:41.187Z,6.10
2023-02-25T00:52:38.124Z,6.05
2023-02-25T00:53:34.893Z,5.81
2023-02-25T00:54:31.566Z,6.12
2023-02-25T00:55:33.641Z,6.28
2023-02-25T00:56:30.500Z,6.27
2023-02-25T00:57:27.159Z,6.10
2023-02-25T00:58:23.868Z,6.16
2023-02-25T00:59:20.457Z,6.13
2023-02-25T01:00:17.672Z,6.23
2023-02-25T01:01:30.393Z,6.22
2023-02-25T01:02:27.118Z,6.15
2023-02-25T01:03:24.741Z,6.06
2023-02-25T01:04:21.526Z,6.22
2023-02-25T01:05:18.203Z,6.17
2023-02-25T01:06:14.943Z,6.13
2023-02-25T01:07:11.932Z,6.18
2023-02-25T01:08:08.525Z,6.11
2023-02-25T01:09:07.849Z,6.07
2023-02-25T01:10:05.256Z,6.15
2023-02-25T01:11:11.713Z,6.09
2023-02-25T01:12:08.852Z,6.07
2023-02-25T01:13:05.464Z,6.02
2023-02-25T01:14:06.116Z,6.07
2023-02-25T01:15:03.297Z,6.06
2023-02-25T01:16:00.392Z,6.13
2023-02-25T01:17:00.366Z,6.20
2023-02-25T01:17:56.970Z,6.34
2023-02-25T01:18:59.397Z,6.47
2023-02-25T01:19:57.674Z,6.32
2023-02-25T01:20:54.367Z,6.34
2023-02-25T01:21:54.877Z,6.31
2023-02-25T01:22:51.579Z,6.25
2023-02-25T01:23:49.391Z,6.22
2023-02-25T01:24:46.048Z,6.18
2023-02-25T01:25:42.682Z,6.25
2023-02-25T01:26:42.596Z,5.93
2023-02-25T01:27:39.393Z,6.10
2023-02-25T01:28:35.979Z,6.03
2023-02-25T01:29:36.902Z,5.89
2023-02-25T01:30:37.308Z,5.79
2023-02-25T01:31:34.062Z,5.82
2023-02-25T01:32:30.833Z,5.84
2023-02-25T01:33:27.584Z,6.02
2023-02-25T01:34:24.867Z,5.97
2023-02-25T01:35:21.525Z,5.57
2023-02-25T01:36:18.099Z,5.84
2023-02-25T01:37:15.654Z,5.79
2023-02-25T01:38:12.229Z,5.91
2023-02-25T01:39:10.036Z,5.86
2023-02-25T01:40:07.191Z,5.74
2023-02-25T01:41:04.013Z,5.81
2023-02-25T01:42:04.292Z,6.07
2023-02-25T01:43:00.889Z,5.91
2023-02-25T01:44:13.876Z,5.82
2023-02-25T01:45:19.616Z,6.04
2023-02-25T01:46:16.282Z,6.08
2023-02-25T01:47:20.821Z,5.99
2023-02-25T01:48:20.800Z,5.81
2023-02-25T01:49:41.835Z,5.73
2023-02-25T01:50:49.174Z,5.78
2023-02-25T01:51:49.297Z,5.86
2023-02-25T01:52:46.334Z,5.71
2023-02-25T01:53:46.769Z,5.77
2023-02-25T01:54:45.735Z,5.74
2023-02-25T01:55:42.873Z,5.97
2023-02-25T01:56:42.784Z,5.87
2023-02-25T01:57:39.640Z,5.47
2023-02-25T01:58:36.592Z,5.80
2023-02-25T01:59:34.596Z,5.76
2023-02-25T02:00:32.652Z,6.02
2023-02-25T02:01:32.269Z,5.92
2023-02-25T02:02:29.774Z,5.79
2023-02-25T02:03:32.111Z,6.14
2023-02-25T02:04:30.423Z,5.89
2023-02-25T02:05:48.165Z,5.99
2023-02-25T02:06:46.723Z,5.90
2023-02-25T02:07:43.478Z,5.92
2023-02-25T02:08:42.485Z,6.00
2023-02-25T02:09:40.407Z,5.97
2023-02-25T02:10:37.240Z,5.89
2023-02-25T02:11:34.336Z,5.83
2023-02-25T02:12:37.082Z,5.75
2023-02-25T02:13:37.217Z,5.84
2023-02-25T02:14:39.298Z,6.07
2023-02-25T02:15:40.169Z,5.94
2023-02-25T02:16:45.076Z,5.84
2023-02-25T02:17:58.949Z,5.89
2023-02-25T02:19:11.193Z,6.00
2023-02-25T02:20:30.917Z,5.99
2023-02-25T02:21:39.752Z,5.93
2023-02-25T02:22:54.566Z,5.84
2023-02-25T02:24:10.040Z,6.12
2023-02-25T02:25:40.789Z,5.92
2023-02-25T02:26:52.139Z,6.07
2023-02-25T02:28:10.639Z,6.15
2023-02-25T02:29:45.388Z,6.05
2023-02-25T02:31:09.660Z,5.98
2023-02-25T02:32:16.005Z,5.63
2023-02-25T02:33:44.495Z,5.79
2023-02-25T02:35:03.028Z,5.62
2023-02-25T02:36:08.324Z,5.83
2023-02-25T02:37:18.255Z,5.81
2023-02-25T02:38:34.141Z,5.36
2023-02-25T02:39:47.990Z,5.54
2023-02-25T02:41:28.061Z,5.84
2023-02-25T02:42:27.711Z,5.38
2023-02-25T02:43:27.039Z,5.61
2023-02-25T02:44:29.758Z,5.56
2023-02-25T02:45:36.750Z,4.88
2023-02-25T02:46:38.764Z,5.21
2023-02-25T02:47:39.113Z,4.86
2023-02-25T02:48:46.087Z,4.95
2023-02-25T02:49:49.068Z,4.93
2023-02-25T02:50:52.198Z,4.87
2023-02-25T02:51:57.297Z,4.71
2023-02-25T02:52:58.650Z,4.70
2023-02-25T02:54:00.386Z,4.29
2023-02-25T02:55:10.762Z,4.25
2023-02-25T02:56:12.341Z,4.22
2023-02-25T02:57:12.639Z,4.53
2023-02-25T02:58:16.543Z,4.58
2023-02-25T02:59:21.466Z,4.69
2023-02-25T03:00:27.009Z,4.89
2023-02-25T03:01:29.077Z,4.97
2023-02-25T03:02:35.458Z,4.90
2023-02-25T03:03:37.468Z,4.68
2023-02-25T03:04:38.263Z,4.90
2023-02-25T03:05:37.299Z,5.26
2023-02-25T03:06:40.494Z,4.96
2023-02-25T03:07:43.374Z,5.06
2023-02-25T03:08:54.150Z,5.24
2023-02-25T03:09:55.402Z,5.35
2023-02-25T03:10:52.239Z,5.33
2023-02-25T03:11:48.895Z,5.18
2023-02-25T03:12:45.555Z,5.18
2023-02-25T03:13:42.245Z,5.17
2023-02-25T03:14:38.869Z,5.15
2023-02-25T03:15:39.026Z,4.85
2023-02-25T03:16:40.504Z,5.20
2023-02-25T03:17:44.342Z,5.24
2023-02-25T03:18:52.757Z,5.30
2023-02-25T03:20:00.714Z,4.93
2023-02-25T03:20:58.822Z,5.00
2023-02-25T03:22:02.778Z,5.33
2023-02-25T03:23:03.601Z,5.40
2023-02-25T03:24:02.777Z,5.34
2023-02-25T03:25:08.577Z,5.35
2023-02-25T03:26:08.053Z,5.31
2023-02-25T03:27:42.614Z,5.34
2023-02-25T03:28:41.680Z,5.38
2023-02-25T03:29:38.338Z,5.39
2023-02-25T03:30:45.115Z,5.47
2023-02-25T03:31:48.559Z,5.34
2023-02-25T03:32:49.460Z,5.08
2023-02-25T03:33:52.296Z,5.28
2023-02-25T03:34:51.218Z,5.09
2023-02-25T03:35:50.025Z,5.37
2023-02-25T03:36:54.098Z,5.18
2023-02-25T03:37:54.563Z,4.93
2023-02-25T03:38:56.012Z,4.93
2023-02-25T03:39:57.239Z,4.81
2023-02-25T03:40:56.940Z,4.70
2023-02-25T03:41:57.863Z,4.52
2023-02-25T03:43:09.180Z,4.40
2023-02-25T03:44:11.516Z,4.31
2023-02-25T03:45:11.557Z,4.37
2023-02-25T03:46:09.329Z,4.35
2023-02-25T03:47:08.809Z,4.13
2023-02-25T03:48:08.381Z,4.40
2023-02-25T03:49:07.379Z,4.05
2023-02-25T03:50:14.261Z,4.08
2023-02-25T03:51:14.356Z,3.88
2023-02-25T03:52:17.124Z,3.74
2023-02-25T03:53:13.814Z,3.81
2023-02-25T03:54:10.595Z,3.96
2023-02-25T03:55:09.776Z,3.89
2023-02-25T03:56:09.592Z,3.83
2023-02-25T03:57:06.341Z,3.95
2023-02-25T03:58:02.963Z,3.94
2023-02-25T03:58:59.721Z,4.04
2023-02-25T03:59:56.597Z,4.31
2023-02-25T04:00:57.811Z,4.26
2023-02-25T04:01:56.053Z,4.76
2023-02-25T04:02:52.938Z,4.73
2023-02-25T04:03:49.739Z,4.72
2023-02-25T04:04:46.485Z,4.53
2023-02-25T04:05:43.090Z,4.82
2023-02-25T04:06:39.761Z,4.90
2023-02-25T04:07:36.631Z,5.03
2023-02-25T04:08:33.331Z,4.71
2023-02-25T04:09:29.984Z,5.18
2023-02-25T04:10:28.193Z,5.26
2023-02-25T04:11:24.980Z,5.22
2023-02-25T04:12:21.587Z,5.15
2023-02-25T04:13:20.806Z,4.96
2023-02-25T04:14:18.427Z,4.92
2023-02-25T04:15:15.297Z,4.78
2023-02-25T04:16:12.003Z,4.96
2023-02-25T04:17:08.974Z,4.90
2023-02-25T04:18:06.015Z,4.83
2023-02-25T04:19:03.364Z,4.95
2023-02-25T04:20:00.036Z,4.94
2023-02-25T04:20:56.785Z,4.88
2023-02-25T04:21:53.455Z,4.93
2023-02-25T04:22:50.133Z,4.90
2023-02-25T04:23:46.755Z,4.67
2023-02-25T04:24:43.332Z,4.57
2023-02-25T04:25:39.999Z,4.64
2023-02-25T04:26:36.810Z,4.75
2023-02-25T04:27:33.837Z,4.62
2023-02-25T04:28:30.539Z,4.90
2023-02-25T04:29:29.029Z,4.88
2023-02-25T04:30:26.105Z,4.83
2023-02-25T04:31:23.259Z,4.71
2023-02-25T04:32:20.213Z,4.73
2023-02-25T04:33:17.039Z,4.87
2023-02-25T04:34:13.693Z,4.91
2023-02-25T04:35:13.663Z,4.97
2023-02-25T04:36:36.922Z,4.91
2023-02-25T04:37:33.565Z,5.19
2023-02-25T04:38:30.287Z,5.23
2023-02-25T04:39:26.912Z,5.30
2023-02-25T04:40:24.609Z,5.38
2023-02-25T04:41:21.754Z,5.29
2023-02-25T04:42:18.426Z,5.23
2023-02-25T04:43:14.968Z,5.01
2023-02-25T04:44:11.608Z,5.40
2023-02-25T04:45:10.474Z,4.91
2023-02-25T04:46:07.185Z,4.98
2023-02-25T04:47:03.932Z,5.03
2023-02-25T04:48:00.653Z,4.93
2023-02-25T04:48:57.241Z,5.13
2023-02-25T04:49:53.875Z,5.09
2023-02-25T04:50:50.480Z,4.94
2023-02-25T04:51:49.391Z,4.84
2023-02-25T04:52:46.407Z,5.24
2023-02-25T04:53:43.158Z,5.33
2023-02-25T04:54:39.750Z,5.28
2023-02-25T04:55:36.859Z,4.92
2023-02-25T04:56:33.460Z,5.34
2023-02-25T04:57:30.106Z,5.12
2023-02-25T04:58:26.725Z,5.15
2023-02-25T04:59:26.742Z,5.12
2023-02-25T05:00:24.384Z,4.97
2023-02-25T05:01:21.103Z,4.93
2023-02-25T05:02:17.804Z,5.07
2023-02-25T05:03:15.138Z,5.17
2023-02-25T05:04:11.791Z,5.04
2023-02-25T05:05:08.703Z,5.14
2023-02-25T05:06:06.784Z,4.72
2023-02-25T05:07:04.761Z,5.05
2023-02-25T05:08:01.311Z,5.19
2023-02-25T05:08:58.662Z,5.41
2023-02-25T05:09:55.204Z,5.49
2023-02-25T05:10:51.978Z,5.34
2023-02-25T05:11:48.553Z,5.37
2023-02-25T05:12:45.336Z,5.43
2023-02-25T05:13:41.865Z,5.62
2023-02-25T05:14:38.534Z,5.69
2023-02-25T05:15:35.200Z,5.62
2023-02-25T05:16:31.908Z,5.72
2023-02-25T05:17:28.542Z,5.65
2023-02-25T05:18:25.141Z,5.76
2023-02-25T05:19:24.035Z,5.50
2023-02-25T05:20:20.690Z,5.55
2023-02-25T05:21:20.251Z,5.72
2023-02-25T05:22:17.255Z,5.76
2023-02-25T05:23:14.605Z,5.51
2023-02-25T05:24:12.470Z,5.47
2023-02-25T05:25:10.471Z,5.65
2023-02-25T05:26:07.735Z,5.82
2023-02-25T05:27:09.097Z,5.89
2023-02-25T05:28:07.420Z,6.00
2023-02-25T05:29:04.577Z,5.92
2023-02-25T05:30:01.640Z,5.92
2023-02-25T05:30:59.146Z,5.79
2023-02-25T05:31:55.902Z,5.99
2023-02-25T05:32:52.667Z,6.10
2023-02-25T05:33:49.407Z,5.97
2023-02-25T05:34:46.028Z,6.09
2023-02-25T05:35:42.637Z,6.13
2023-02-25T05:36:40.398Z,6.12
2023-02-25T05:37:37.524Z,6.11
2023-02-25T05:38:34.639Z,6.16
2023-02-25T05:39:32.145Z,6.22
2023-02-25T05:40:28.837Z,6.42
2023-02-25T05:41:26.387Z,6.37
2023-02-25T05:42:22.960Z,6.41
2023-02-25T05:43:19.569Z,6.34
2023-02-25T05:44:16.473Z,6.34
2023-02-25T05:45:13.145Z,6.35
2023-02-25T05:46:13.860Z,6.31
2023-02-25T05:47:10.645Z,6.35
2023-02-25T05:48:07.331Z,6.39
2023-02-25T05:49:04.078Z,6.18
2023-02-25T05:50:00.741Z,6.47
2023-02-25T05:51:05.633Z,6.45
2023-02-25T05:52:02.234Z,6.58
2023-02-25T05:52:58.813Z,6.66
2023-02-25T05:53:55.574Z,6.68
2023-02-25T05:54:52.147Z,6.71
2023-02-25T05:55:48.857Z,6.74
2023-02-25T05:56:45.549Z,6.80
2023-02-25T05:57:42.577Z,6.82
2023-02-25T05:58:40.039Z,6.59
2023-02-25T05:59:36.965Z,6.83
2023-02-25T06:00:34.111Z,6.92
2023-02-25T06:01:31.738Z,6.85
2023-02-25T06:02:28.627Z,6.89
2023-02-25T06:03:25.386Z,6.96
2023-02-25T06:04:22.298Z,6.98
2023-02-25T06:05:18.920Z,7.06
2023-02-25T06:06:17.939Z,7.12
2023-02-25T06:07:15.005Z,6.89
2023-02-25T06:08:12.303Z,7.19
2023-02-25T06:09:10.368Z,7.18
2023-02-25T06:10:07.517Z,7.18
2023-02-25T06:11:06.119Z,7.10
2023-02-25T06:12:03.053Z,6.98
2023-02-25T06:12:59.648Z,7.23
2023-02-25T06:13:58.233Z,7.25
2023-02-25T06:14:55.058Z,6.90
2023-02-25T06:15:52.146Z,7.34
2023-02-25T06:16:48.943Z,7.25
2023-02-25T06:17:45.596Z,7.44
2023-02-25T06:18:42.154Z,7.32
2023-02-25T06:19:38.797Z,7.41
2023-02-25T06:20:36.019Z,7.42
2023-02-25T06:21:34.403Z,7.54
2023-02-25T06:22:31.392Z,7.49
2023-02-25T06:23:28.060Z,7.49
2023-02-25T06:24:24.862Z,7.30
2023-02-25T06:25:22.435Z,7.56
2023-02-25T06:26:19.471Z,7.78
2023-02-25T06:27:16.803Z,7.72
2023-02-25T06:28:13.393Z,7.71
2023-02-25T06:29:10.758Z,7.77
2023-02-25T06:30:08.201Z,7.83
2023-02-25T06:31:09.915Z,7.77
2023-02-25T06:32:06.726Z,7.76
2023-02-25T06:33:03.667Z,7.71
2023-02-25T06:34:00.245Z,7.69
2023-02-25T06:34:56.926Z,7.60
2023-02-25T06:35:54.805Z,7.66
2023-02-25T06:36:51.774Z,7.79
2023-02-25T06:37:48.383Z,7.91
2023-02-25T06:38:46.079Z,7.69
2023-02-25T06:39:43.237Z,7.67
2023-02-25T06:40:39.934Z,7.80
2023-02-25T06:41:36.478Z,7.83
2023-02-25T06:42:33.408Z,7.85
2023-02-25T06:43:30.030Z,7.86
2023-02-25T06:44:27.677Z,8.03
2023-02-25T06:45:24.305Z,8.20
2023-02-25T06:46:23.560Z,8.26
2023-02-25T06:47:22.300Z,8.19
2023-02-25T06:48:18.831Z,8.24
2023-02-25T06:49:15.346Z,8.19
2023-02-25T06:50:12.377Z,8.17
2023-02-25T06:51:10.520Z,8.38
2023-02-25T06:52:07.137Z,8.15
2023-02-25T06:53:03.867Z,8.32
2023-02-25T06:54:03.046Z,8.39
2023-02-25T06:54:59.596Z,8.37
2023-02-25T06:55:59.101Z,8.31
2023-02-25T06:56:55.833Z,8.12
2023-02-25T06:57:54.697Z,8.42
2023-02-25T06:58:53.216Z,8.70
2023-02-25T06:59:49.852Z,8.96
2023-02-25T07:00:46.483Z,8.97
2023-02-25T07:01:43.055Z,8.98
2023-02-25T07:02:40.108Z,9.25
2023-02-25T07:03:37.046Z,9.23
2023-02-25T07:04:33.815Z,9.04
2023-02-25T07:05:30.423Z,9.23
2023-02-25T07:06:27.091Z,9.34
2023-02-25T07:07:23.810Z,9.14
2023-02-25T07:08:20.420Z,8.49
2023-02-25T07:09:17.049Z,9.15
2023-02-25T07:10:13.765Z,9.23
2023-02-25T07:11:15.018Z,8.99
2023-02-25T07:12:12.801Z,9.07
2023-02-25T07:13:10.753Z,8.92
2023-02-25T07:14:07.494Z,8.87
2023-02-25T07:15:04.503Z,8.67
2023-02-25T07:16:01.401Z,9.09
2023-02-25T07:16:58.134Z,9.31
2023-02-25T07:17:55.097Z,9.15
2023-02-25T07:18:51.765Z,8.84
2023-02-25T07:19:48.322Z,9.14
2023-02-25T07:20:44.982Z,9.00
2023-02-25T07:21:41.639Z,9.29
2023-02-25T07:22:38.411Z,9.24
2023-02-25T07:23:35.468Z,9.01
2023-02-25T07:24:32.096Z,9.23
2023-02-25T07:25:28.699Z,9.19
2023-02-25T07:26:28.666Z,9.12
2023-02-25T07:27:25.400Z,9.32
2023-02-25T07:28:22.374Z,9.24
2023-02-25T07:29:19.037Z,9.49
2023-02-25T07:30:15.892Z,9.57
2023-02-25T07:31:19.106Z,9.22
2023-02-25T07:32:16.043Z,8.91
2023-02-25T07:33:12.994Z,9.33
2023-02-25T07:34:11.356Z,9.12
2023-02-25T07:35:09.312Z,8.97
2023-02-25T07:36:06.068Z,9.01
2023-02-25T07:37:02.742Z,9.14
2023-02-25T07:37:59.491Z,9.28
2023-02-25T07:38:56.255Z,9.42
2023-02-25T07:39:52.863Z,9.13
2023-02-25T07:40:49.954Z,9.34
2023-02-25T07:41:48.311Z,9.37
2023-02-25T07:42:45.033Z,9.24
2023-02-25T07:43:41.957Z,9.34
2023-02-25T07:44:38.593Z,9.77
2023-02-25T07:45:35.326Z,9.05
2023-02-25T07:46:32.757Z,9.65
2023-02-25T07:47:29.447Z,9.49
2023-02-25T07:48:26.623Z,9.48
2023-02-25T07:49:23.149Z,9.45
2023-02-25T07:50:19.997Z,9.54
2023-02-25T07:51:20.309Z,9.86
2023-02-25T07:52:17.057Z,9.62
2023-02-25T07:53:13.599Z,9.44
2023-02-25T07:54:10.267Z,9.44
2023-02-25T07:55:07.381Z,9.45
2023-02-25T07:56:06.119Z,9.45
2023-02-25T07:57:02.911Z,9.24
2023-02-25T07:57:59.467Z,9.24
2023-02-25T07:58:56.210Z,9.24
2023-02-25T07:59:52.808Z,9.19
2023-02-25T08:00:49.395Z,9.28
2023-02-25T08:01:46.024Z,9.31
2023-02-25T08:02:44.082Z,9.52
2023-02-25T08:03:40.855Z,9.76
2023-02-25T08:04:38.075Z,9.47
2023-02-25T08:05:36.367Z,9.83
2023-02-25T08:06:38.567Z,9.89
2023-02-25T08:07:36.554Z,10.04
2023-02-25T08:08:33.222Z,10.04
2023-02-25T08:09:29.848Z,10.03
2023-02-25T08:10:26.996Z,10.13
2023-02-25T08:11:25.451Z,10.17
2023-02-25T08:12:22.504Z,10.12
2023-02-25T08:13:19.461Z,10.69
2023-02-25T08:14:16.161Z,10.48
2023-02-25T08:15:12.709Z,10.61
2023-02-25T08:16:12.490Z,10.70
2023-02-25T08:17:09.185Z,10.85
2023-02-25T08:18:05.898Z,10.23
2023-02-25T08:19:02.727Z,10.02
2023-02-25T08:19:59.417Z,10.49
2023-02-25T08:20:58.283Z,10.35
2023-02-25T08:21:55.119Z,10.78
2023-02-25T08:22:51.804Z,10.55
2023-02-25T08:23:48.884Z,10.44
2023-02-25T08:24:45.445Z,10.44
2023-02-25T08:25:42.194Z,10.24
2023-02-25T08:26:39.123Z,10.55
2023-02-25T08:27:37.252Z,10.69
2023-02-25T08:28:37.051Z,10.11
2023-02-25T08:29:33.911Z,10.55
2023-02-25T08:30:30.553Z,10.92
2023-02-25T08:31:28.037Z,10.56
2023-02-25T08:32:26.131Z,10.35
2023-02-25T08:33:24.005Z,10.54
2023-02-25T08:34:20.685Z,10.32
2023-02-25T08:35:17.385Z,10.22
2023-02-25T08:36:20.694Z,10.73
2023-02-25T08:37:17.417Z,11.33
2023-02-25T08:38:14.102Z,10.72
2023-02-25T08:39:11.154Z,10.59
2023-02-25T08:40:10.145Z,10.32
2023-02-25T08:41:08.189Z,10.26
2023-02-25T08:42:05.494Z,10.38
2023-02-25T08:43:02.355Z,10.74
2023-02-25T08:44:01.474Z,11.13
2023-02-25T08:44:58.175Z,11.28
2023-02-25T08:45:56.455Z,11.29
2023-02-25T08:46:53.092Z,10.51
2023-02-25T08:47:49.904Z,10.87
2023-02-25T08:48:50.201Z,11.52
2023-02-25T08:49:47.669Z,11.83
2023-02-25T08:50:44.439Z,11.37
2023-02-25T08:51:41.132Z,11.37
2023-02-25T08:52:37.767Z,11.90
2023-02-25T08:53:39.132Z,11.14
2023-02-25T08:54:37.029Z,12.02
2023-02-25T08:55:35.921Z,11.81
2023-02-25T08:56:33.773Z,11.96
2023-02-25T08:57:31.078Z,12.20
2023-02-25T08:58:27.806Z,11.91
2023-02-25T08:59:24.464Z,11.64
2023-02-25T09:00:22.282Z,11.84
2023-02-25T09:01:19.001Z,11.62
2023-02-25T09:02:17.150Z,12.14
2023-02-25T09:03:13.777Z,12.32
2023-02-25T09:04:20.179Z,12.37
2023-02-25T09:05:18.889Z,12.13
2023-02-25T09:06:17.387Z,11.88
2023-02-25T09:07:16.319Z,12.11
2023-02-25T09:08:12.900Z,11.54
2023-02-25T09:09:09.807Z,11.25
2023-02-25T09:10:07.648Z,11.57
2023-02-25T09:11:06.168Z,11.43
2023-02-25T09:12:05.210Z,11.66
2023-02-25T09:13:02.228Z,11.37
2023-02-25T09:13:59.478Z,11.61
2023-02-25T09:14:56.157Z,11.71
2023-02-25T09:15:57.678Z,11.82
2023-02-25T09:16:54.344Z,11.93
2023-02-25T09:17:53.208Z,12.12
2023-02-25T09:18:51.728Z,11.93
2023-02-25T09:19:49.151Z,11.39
2023-02-25T09:20:50.522Z,11.75
2023-02-25T09:21:48.322Z,11.60
2023-02-25T09:22:45.363Z,11.40
2023-02-25T09:23:42.380Z,11.00
2023-02-25T09:24:39.035Z,11.17
2023-02-25T09:25:38.109Z,11.29
2023-02-25T09:26:35.090Z,11.44
2023-02-25T09:27:31.782Z,11.55
2023-02-25T09:28:28.453Z,11.37
2023-02-25T09:29:25.079Z,11.09
2023-02-25T09:30:21.728Z,11.48
2023-02-25T09:31:18.836Z,11.33
2023-02-25T09:32:21.048Z,11.06
2023-02-25T09:33:17.722Z,11.11
2023-02-25T09:34:14.451Z,11.21
2023-02-25T09:35:12.590Z,11.64
2023-02-25T09:36:15.585Z,10.88
2023-02-25T09:37:14.411Z,11.37
2023-02-25T09:38:11.463Z,11.78
2023-02-25T09:39:10.387Z,11.65
2023-02-25T09:40:09.577Z,11.73
2023-02-25T09:41:27.457Z,11.40
2023-02-25T09:42:30.412Z,11.12
2023-02-25T09:43:38.261Z,10.95
2023-02-25T09:44:43.437Z,11.09
2023-02-25T09:45:42.163Z,11.60
2023-02-25T09:46:45.033Z,11.25
2023-02-25T09:48:09.611Z,11.31
2023-02-25T09:49:17.971Z,11.57
2023-02-25T09:50:21.811Z,11.52
2023-02-25T09:51:22.527Z,11.26
2023-02-25T09:52:32.416Z,11.41
2023-02-25T09:53:45.086Z,11.23
2023-02-25T09:54:47.680Z,11.60
2023-02-25T09:55:47.890Z,11.76
2023-02-25T09:56:44.869Z,11.40
2023-02-25T09:57:41.989Z,11.32
2023-02-25T09:58:46.077Z,11.49
2023-02-25T09:59:42.692Z,11.74
2023-02-25T10:00:57.277Z,11.97
2023-02-25T10:02:29.146Z,11.59
2023-02-25T10:03:38.332Z,11.63
2023-02-25T10:04:58.238Z,11.83
2023-02-25T10:06:03.139Z,11.68
2023-02-25T10:07:08.771Z,11.54
2023-02-25T10:08:11.340Z,11.71
2023-02-25T10:09:23.005Z,11.69
2023-02-25T10:10:44.680Z,11.66
2023-02-25T10:11:50.452Z,11.47
2023-02-25T10:13:04.438Z,11.70
2023-02-25T10:14:29.686Z,11.72
2023-02-25T10:16:02.360Z,11.76
2023-02-25T10:17:23.730Z,12.26
2023-02-25T10:18:35.512Z,12.94
2023-02-25T10:19:48.286Z,12.41
2023-02-25T10:20:55.886Z,12.05
2023-02-25T10:22:14.685Z,12.34
2023-02-25T10:23:35.561Z,12.28
2023-02-25T10:24:40.942Z,12.48
2023-02-25T10:25:44.190Z,11.96
2023-02-25T10:26:46.642Z,12.34
2023-02-25T10:28:02.653Z,12.55
2023-02-25T10:29:07.418Z,12.71
2023-02-25T10:30:14.797Z,12.75
2023-02-25T10:31:21.754Z,12.92
2023-02-25T10:32:38.833Z,13.05
2023-02-25T10:33:40.605Z,13.09
2023-02-25T10:34:39.154Z,13.08
2023-02-25T10:35:40.557Z,12.81
2023-02-25T10:36:43.912Z,12.75
2023-02-25T10:37:40.524Z,12.73
2023-02-25T10:38:42.159Z,12.80
2023-02-25T10:39:38.709Z,12.62
2023-02-25T10:40:35.848Z,12.90
2023-02-25T10:41:32.532Z,12.91
2023-02-25T10:42:29.122Z,13.09
2023-02-25T10:43:27.556Z,13.28
2023-02-25T10:44:24.250Z,13.24
2023-02-25T10:45:25.127Z,13.27
2023-02-25T10:46:31.389Z,12.88
2023-02-25T10:47:36.264Z,12.80
2023-02-25T10:48:34.891Z,12.77
2023-02-25T10:49:38.217Z,13.06
2023-02-25T10:50:45.402Z,12.87
2023-02-25T10:52:04.417Z,12.92
2023-02-25T10:53:12.637Z,13.08
2023-02-25T10:54:13.974Z,12.86
2023-02-25T10:55:28.941Z,12.92
2023-02-25T10:56:32.795Z,13.10
2023-02-25T10:57:41.143Z,12.87
2023-02-25T10:58:44.478Z,12.73
2023-02-25T10:59:43.362Z,12.96
2023-02-25T11:00:41.080Z,12.90
2023-02-25T11:01:43.442Z,12.95
2023-02-25T11:02:44.127Z,13.20
2023-02-25T11:04:02.765Z,13.07
2023-02-25T11:04:59.414Z,13.10
2023-02-25T11:06:23.465Z,13.04
2023-02-25T11:07:47.643Z,13.00
2023-02-25T11:08:44.720Z,12.55
2023-02-25T11:09:41.322Z,13.17
2023-02-25T11:10:37.996Z,13.48
2023-02-25T11:11:39.278Z,12.95
2023-02-25T11:13:09.827Z,13.16
2023-02-25T11:14:06.433Z,13.16
2023-02-25T11:15:43.814Z,13.40
2023-02-25T11:16:44.083Z,13.21
2023-02-25T11:17:44.814Z,13.15
2023-02-25T11:18:42.079Z,13.14
2023-02-25T11:19:45.168Z,13.28
2023-02-25T11:20:54.109Z,13.34
2023-02-25T11:21:51.639Z,12.88
2023-02-25T11:22:52.756Z,13.24
2023-02-25T11:23:49.701Z,13.27
2023-02-25T11:25:02.493Z,13.55
2023-02-25T11:26:00.043Z,13.52
2023-02-25T11:26:58.060Z,12.98
2023-02-25T11:27:58.751Z,13.50
2023-02-25T11:28:59.270Z,13.50
2023-02-25T11:30:03.735Z,13.68
2023-02-25T11:31:20.896Z,13.51
2023-02-25T11:32:22.619Z,13.40
2023-02-25T11:33:26.994Z,13.45
2023-02-25T11:34:33.595Z,13.54
2023-02-25T11:35:37.399Z,13.53
2023-02-25T11:36:36.737Z,13.60
2023-02-25T11:37:36.665Z,13.69
2023-02-25T11:38:41.949Z,13.41
2023-02-25T11:39:52.739Z,13.11
2023-02-25T11:40:49.450Z,13.57
2023-02-25T11:41:54.182Z,13.26
2023-02-25T11:43:05.843Z,13.42
2023-02-25T11:44:24.444Z,13.34
2023-02-25T11:45:21.067Z,13.66
2023-02-25T11:46:23.359Z,13.57
2023-02-25T11:47:26.852Z,13.25
2023-02-25T11:48:29.082Z,13.69
2023-02-25T11:49:53.331Z,13.63
2023-02-25T11:51:09.649Z,13.50
2023-02-25T11:52:17.745Z,13.59
2023-02-25T11:53:26.444Z,13.64
2023-02-25T11:54:29.232Z,13.68
2023-02-25T11:55:40.330Z,13.81
2023-02-25T11:56:40.533Z,13.75
2023-02-25T11:58:19.077Z,13.78
2023-02-25T11:59:21.517Z,14.06
2023-02-25T12:00:49.521Z,13.81
2023-02-25T12:02:03.321Z,13.81
2023-02-25T12:03:38.603Z,13.99
2023-02-25T12:05:06.233Z,14.00
2023-02-25T12:06:02.793Z,14.15
2023-02-25T12:07:55.421Z,14.06
2023-02-25T12:09:18.840Z,14.03
2023-02-25T12:10:30.566Z,14.02
2023-02-25T12:11:52.312Z,13.96
2023-02-25T12:13:25.071Z,14.17
2023-02-25T12:14:36.678Z,14.14
2023-02-25T12:15:33.291Z,14.18
2023-02-25T12:16:56.124Z,14.14
2023-02-25T12:18:23.803Z,14.27
2023-02-25T12:19:43.862Z,14.21
2023-02-25T12:20:58.939Z,14.14
2023-02-25T12:22:16.973Z,14.02
2023-02-25T12:23:41.498Z,14.27
2023-02-25T12:24:57.028Z,14.39
2023-02-25T12:26:15.292Z,14.29
2023-02-25T12:27:30.377Z,14.32
2023-02-25T12:28:45.729Z,14.09
2023-02-25T12:30:23.090Z,14.29
2023-02-25T12:31:38.661Z,14.20
2023-02-25T12:33:02.946Z,14.35
2023-02-25T12:34:08.278Z,14.25
2023-02-25T12:35:43.124Z,14.41
2023-02-25T12:36:48.770Z,14.31
2023-02-25T12:38:07.992Z,14.33
2023-02-25T12:39:32.056Z,14.36
2023-02-25T12:40:47.469Z,14.21
2023-02-25T12:41:50.165Z,14.38
2023-02-25T12:43:13.684Z,14.19
2023-02-25T12:44:41.267Z,14.48
2023-02-25T12:45:49.619Z,14.39
2023-02-25T12:47:17.720Z,14.30
2023-02-25T12:48:20.430Z,14.13
2023-02-25T12:49:32.109Z,14.14
2023-02-25T12:50:43.094Z,14.19
2023-02-25T12:52:03.539Z,14.20
2023-02-25T12:53:15.123Z,14.17
2023-02-25T12:54:30.047Z,14.27
2023-02-25T12:56:04.081Z,14.10
2023-02-25T12:57:19.301Z,14.39
2023-02-25T12:58:30.850Z,14.46
2023-02-25T12:59:54.752Z,14.43
2023-02-25T13:01:12.780Z,14.42
2023-02-25T13:02:43.380Z,14.28
2023-02-25T13:03:54.515Z,14.26
2023-02-25T13:05:08.023Z,14.15
2023-02-25T13:06:29.010Z,14.10
2023-02-25T13:07:37.533Z,13.93
2023-02-25T13:08:36.885Z,13.80
2023-02-25T13:09:44.775Z,14.02
2023-02-25T13:10:52.554Z,14.16
2023-02-25T13:12:16.880Z,14.32
2023-02-25T13:13:47.538Z,14.23
2023-02-25T13:15:06.761Z,14.11
2023-02-25T13:16:15.643Z,14.08
2023-02-25T13:17:18.344Z,14.20
2023-02-25T13:18:32.435Z,14.04
2023-02-25T13:19:50.250Z,13.95
2023-02-25T13:21:18.921Z,14.07
2023-02-25T13:22:27.607Z,14.01
2023-02-25T13:23:33.619Z,14.11
2023-02-25T13:24:41.780Z,14.29
2023-02-25T13:26:03.906Z,14.16
2023-02-25T13:28:13.345Z,14.22
2023-02-25T13:29:39.990Z,14.17
2023-02-25T13:31:10.011Z,14.06
2023-02-25T13:32:37.891Z,14.07
2023-02-25T13:33:49.009Z,13.97
2023-02-25T13:35:07.125Z,14.07
2023-02-25T13:36:34.800Z,13.99